sensor_id;sensor_type;location;lat;lon;timestamp;P1;durP1;ratioP1;P2;durP2;ratioP2
10335;SDS011;5213;53.548;9.930;2023-05-20T00:00:10;1.75;;;1.65;;
10335;SDS011;5213;53.548;9.930;2023-05-20T00:02:36;1.70;;;1.60;;
10335;SDS011;5213;53.548;9.930;2023-05-20T00:05:02;1.48;;;1.38;;
10335;SDS011;5213;53.548;9.930;2023-05-20T00:07:28;1.55;;;1.45;;
10335;SDS011;5213;53.548;9.930;2023-05-20T00:09:54;2.80;;;1.63;;
10335;SDS011;5213;53.548;9.930;2023-05-20T00:12:20;2.25;;;1.50;;
10335;SDS011;5213;53.548;9.930;2023-05-20T00:14:47;3.00;;;1.60;;
10335;SDS011;5213;53.548;9.930;2023-05-20T00:17:13;1.73;;;1.63;;
10335;SDS011;5213;53.548;9.930;2023-05-20T00:19:39;1.73;;;1.60;;
10335;SDS011;5213;53.548;9.930;2023-05-20T00:22:05;3.70;;;1.50;;
10335;SDS011;5213;53.548;9.930;2023-05-20T00:24:31;1.85;;;1.73;;
10335;SDS011;5213;53.548;9.930;2023-05-20T00:26:57;1.50;;;1.40;;
10335;SDS011;5213;53.548;9.930;2023-05-20T00:29:23;1.60;;;1.50;;
10335;SDS011;5213;53.548;9.930;2023-05-20T00:31:49;1.50;;;1.40;;
10335;SDS011;5213;53.548;9.930;2023-05-20T00:34:15;1.40;;;1.30;;
10335;SDS011;5213;53.548;9.930;2023-05-20T00:36:41;1.40;;;1.30;;
10335;SDS011;5213;53.548;9.930;2023-05-20T00:39:07;2.25;;;1.30;;
10335;SDS011;5213;53.548;9.930;2023-05-20T00:41:33;1.67;;;1.58;;
10335;SDS011;5213;53.548;9.930;2023-05-20T00:44:00;1.48;;;1.38;;
10335;SDS011;5213;53.548;9.930;2023-05-20T00:46:26;2.38;;;1.10;;
10335;SDS011;5213;53.548;9.930;2023-05-20T00:48:53;2.33;;;1.55;;
10335;SDS011;5213;53.548;9.930;2023-05-20T00:51:19;1.83;;;1.20;;
10335;SDS011;5213;53.548;9.930;2023-05-20T00:53:46;1.52;;;1.30;;
10335;SDS011;5213;53.548;9.930;2023-05-20T00:56:12;1.92;;;1.33;;
10335;SDS011;5213;53.548;9.930;2023-05-20T00:58:39;2.00;;;1.33;;
10335;SDS011;5213;53.548;9.930;2023-05-20T01:01:05;2.45;;;1.10;;
10335;SDS011;5213;53.548;9.930;2023-05-20T01:03:31;1.23;;;1.10;;
10335;SDS011;5213;53.548;9.930;2023-05-20T01:05:57;2.50;;;1.30;;
10335;SDS011;5213;53.548;9.930;2023-05-20T01:08:25;1.63;;;1.50;;
10335;SDS011;5213;53.548;9.930;2023-05-20T01:11:15;1.17;;;1.17;;
10335;SDS011;5213;53.548;9.930;2023-05-20T01:13:46;1.45;;;1.35;;
10335;SDS011;5213;53.548;9.930;2023-05-20T01:16:16;1.50;;;1.40;;
10335;SDS011;5213;53.548;9.930;2023-05-20T01:18:42;1.80;;;1.30;;
10335;SDS011;5213;53.548;9.930;2023-05-20T01:21:12;2.05;;;1.52;;
10335;SDS011;5213;53.548;9.930;2023-05-20T01:23:39;1.42;;;1.33;;
10335;SDS011;5213;53.548;9.930;2023-05-20T01:26:06;1.95;;;1.10;;
10335;SDS011;5213;53.548;9.930;2023-05-20T01:28:35;2.05;;;1.52;;
10335;SDS011;5213;53.548;9.930;2023-05-20T01:31:05;1.33;;;1.23;;
10335;SDS011;5213;53.548;9.930;2023-05-20T01:33:34;3.42;;;1.42;;
10335;SDS011;5213;53.548;9.930;2023-05-20T01:36:01;1.33;;;1.23;;
10335;SDS011;5213;53.548;9.930;2023-05-20T01:38:27;1.45;;;1.35;;
10335;SDS011;5213;53.548;9.930;2023-05-20T01:40:53;1.58;;;1.48;;
10335;SDS011;5213;53.548;9.930;2023-05-20T01:43:20;1.10;;;1.10;;
10335;SDS011;5213;53.548;9.930;2023-05-20T01:45:46;1.60;;;1.50;;
10335;SDS011;5213;53.548;9.930;2023-05-20T01:48:12;1.58;;;1.23;;
10335;SDS011;5213;53.548;9.930;2023-05-20T01:50:38;1.17;;;1.17;;
10335;SDS011;5213;53.548;9.930;2023-05-20T01:53:05;1.67;;;1.48;;
10335;SDS011;5213;53.548;9.930;2023-05-20T01:55:33;1.90;;;1.20;;
10335;SDS011;5213;53.548;9.930;2023-05-20T01:57:59;2.45;;;1.40;;
10335;SDS011;5213;53.548;9.930;2023-05-20T02:00:25;1.20;;;1.10;;
10335;SDS011;5213;53.548;9.930;2023-05-20T02:02:51;2.60;;;1.30;;
10335;SDS011;5213;53.548;9.930;2023-05-20T02:05:17;1.98;;;1.40;;
10335;SDS011;5213;53.548;9.930;2023-05-20T02:07:43;2.83;;;1.33;;
10335;SDS011;5213;53.548;9.930;2023-05-20T02:10:10;2.15;;;1.48;;
10335;SDS011;5213;53.548;9.930;2023-05-20T02:12:36;2.17;;;1.38;;
10335;SDS011;5213;53.548;9.930;2023-05-20T02:15:02;2.35;;;1.60;;
10335;SDS011;5213;53.548;9.930;2023-05-20T02:17:28;1.85;;;1.38;;
10335;SDS011;5213;53.548;9.930;2023-05-20T02:19:54;1.67;;;1.50;;
10335;SDS011;5213;53.548;9.930;2023-05-20T02:22:21;2.33;;;1.48;;
10335;SDS011;5213;53.548;9.930;2023-05-20T02:24:46;3.08;;;1.58;;
10335;SDS011;5213;53.548;9.930;2023-05-20T02:27:13;2.45;;;1.50;;
10335;SDS011;5213;53.548;9.930;2023-05-20T02:29:39;2.45;;;1.80;;
10335;SDS011;5213;53.548;9.930;2023-05-20T02:32:05;2.05;;;1.70;;
10335;SDS011;5213;53.548;9.930;2023-05-20T02:34:31;2.70;;;1.60;;
10335;SDS011;5213;53.548;9.930;2023-05-20T02:36:57;1.83;;;1.45;;
10335;SDS011;5213;53.548;9.930;2023-05-20T02:39:24;1.48;;;1.38;;
10335;SDS011;5213;53.548;9.930;2023-05-20T02:41:50;1.88;;;1.65;;
10335;SDS011;5213;53.548;9.930;2023-05-20T02:44:16;3.03;;;1.70;;
10335;SDS011;5213;53.548;9.930;2023-05-20T02:46:42;2.20;;;1.63;;
10335;SDS011;5213;53.548;9.930;2023-05-20T02:49:08;2.22;;;1.70;;
10335;SDS011;5213;53.548;9.930;2023-05-20T02:51:34;2.08;;;1.60;;
10335;SDS011;5213;53.548;9.930;2023-05-20T02:54:00;1.55;;;1.45;;
10335;SDS011;5213;53.548;9.930;2023-05-20T02:56:26;4.30;;;1.42;;
10335;SDS011;5213;53.548;9.930;2023-05-20T02:58:52;3.85;;;1.77;;
10335;SDS011;5213;53.548;9.930;2023-05-20T03:01:18;2.38;;;1.60;;
10335;SDS011;5213;53.548;9.930;2023-05-20T03:03:44;2.55;;;1.50;;
10335;SDS011;5213;53.548;9.930;2023-05-20T03:06:10;3.67;;;1.92;;
10335;SDS011;5213;53.548;9.930;2023-05-20T03:08:37;3.20;;;1.58;;
10335;SDS011;5213;53.548;9.930;2023-05-20T03:11:03;3.33;;;2.30;;
10335;SDS011;5213;53.548;9.930;2023-05-20T03:13:30;2.38;;;1.40;;
10335;SDS011;5213;53.548;9.930;2023-05-20T03:15:56;4.80;;;1.75;;
10335;SDS011;5213;53.548;9.930;2023-05-20T03:18:22;2.88;;;1.73;;
10335;SDS011;5213;53.548;9.930;2023-05-20T03:20:48;1.83;;;1.63;;
10335;SDS011;5213;53.548;9.930;2023-05-20T03:23:14;2.25;;;1.70;;
10335;SDS011;5213;53.548;9.930;2023-05-20T03:25:40;1.73;;;1.48;;
10335;SDS011;5213;53.548;9.930;2023-05-20T03:28:06;2.53;;;1.60;;
10335;SDS011;5213;53.548;9.930;2023-05-20T03:30:32;2.50;;;1.88;;
10335;SDS011;5213;53.548;9.930;2023-05-20T03:32:58;2.65;;;1.70;;
10335;SDS011;5213;53.548;9.930;2023-05-20T03:35:26;2.40;;;1.65;;
10335;SDS011;5213;53.548;9.930;2023-05-20T03:37:52;2.00;;;1.77;;
10335;SDS011;5213;53.548;9.930;2023-05-20T03:40:19;1.92;;;1.60;;
10335;SDS011;5213;53.548;9.930;2023-05-20T03:42:45;2.80;;;1.70;;
10335;SDS011;5213;53.548;9.930;2023-05-20T03:45:11;1.67;;;1.58;;
10335;SDS011;5213;53.548;9.930;2023-05-20T03:47:37;2.45;;;1.60;;
10335;SDS011;5213;53.548;9.930;2023-05-20T03:50:03;2.90;;;1.55;;
10335;SDS011;5213;53.548;9.930;2023-05-20T03:52:30;1.80;;;1.50;;
10335;SDS011;5213;53.548;9.930;2023-05-20T03:54:56;2.90;;;1.30;;
10335;SDS011;5213;53.548;9.930;2023-05-20T03:57:22;3.15;;;1.83;;
10335;SDS011;5213;53.548;9.930;2023-05-20T03:59:48;2.55;;;1.60;;
10335;SDS011;5213;53.548;9.930;2023-05-20T04:02:15;2.45;;;1.55;;
10335;SDS011;5213;53.548;9.930;2023-05-20T04:04:41;3.00;;;1.80;;
10335;SDS011;5213;53.548;9.930;2023-05-20T04:07:10;1.73;;;1.48;;
10335;SDS011;5213;53.548;9.930;2023-05-20T04:09:37;2.22;;;1.48;;
10335;SDS011;5213;53.548;9.930;2023-05-20T04:12:03;2.80;;;1.52;;
10335;SDS011;5213;53.548;9.930;2023-05-20T04:14:30;2.85;;;1.70;;
10335;SDS011;5213;53.548;9.930;2023-05-20T04:16:58;2.45;;;1.90;;
10335;SDS011;5213;53.548;9.930;2023-05-20T04:19:25;2.03;;;1.80;;
10335;SDS011;5213;53.548;9.930;2023-05-20T04:21:52;5.13;;;1.85;;
10335;SDS011;5213;53.548;9.930;2023-05-20T04:24:18;3.63;;;1.70;;
10335;SDS011;5213;53.548;9.930;2023-05-20T04:26:49;3.20;;;1.65;;
10335;SDS011;5213;53.548;9.930;2023-05-20T04:29:15;1.80;;;1.70;;
10335;SDS011;5213;53.548;9.930;2023-05-20T04:31:41;2.90;;;1.55;;
10335;SDS011;5213;53.548;9.930;2023-05-20T04:34:07;3.63;;;1.88;;
10335;SDS011;5213;53.548;9.930;2023-05-20T04:36:33;4.55;;;1.88;;
10335;SDS011;5213;53.548;9.930;2023-05-20T04:39:02;3.15;;;1.70;;
10335;SDS011;5213;53.548;9.930;2023-05-20T04:41:29;3.65;;;1.70;;
10335;SDS011;5213;53.548;9.930;2023-05-20T04:43:55;1.98;;;1.48;;
10335;SDS011;5213;53.548;9.930;2023-05-20T04:46:25;3.28;;;1.83;;
10335;SDS011;5213;53.548;9.930;2023-05-20T04:48:52;4.20;;;1.83;;
10335;SDS011;5213;53.548;9.930;2023-05-20T04:51:18;3.53;;;1.52;;
10335;SDS011;5213;53.548;9.930;2023-05-20T04:53:44;1.73;;;1.63;;
10335;SDS011;5213;53.548;9.930;2023-05-20T04:56:10;1.90;;;1.50;;
10335;SDS011;5213;53.548;9.930;2023-05-20T04:58:37;2.03;;;1.80;;
10335;SDS011;5213;53.548;9.930;2023-05-20T05:01:03;2.97;;;1.60;;
10335;SDS011;5213;53.548;9.930;2023-05-20T05:03:29;2.60;;;1.80;;
10335;SDS011;5213;53.548;9.930;2023-05-20T05:05:56;4.55;;;1.80;;
10335;SDS011;5213;53.548;9.930;2023-05-20T05:08:22;3.53;;;1.80;;
10335;SDS011;5213;53.548;9.930;2023-05-20T05:10:48;2.33;;;1.50;;
10335;SDS011;5213;53.548;9.930;2023-05-20T05:13:22;2.20;;;1.60;;
10335;SDS011;5213;53.548;9.930;2023-05-20T05:15:59;2.28;;;1.67;;
10335;SDS011;5213;53.548;9.930;2023-05-20T05:18:25;3.00;;;1.58;;
10335;SDS011;5213;53.548;9.930;2023-05-20T05:20:58;3.03;;;1.90;;
10335;SDS011;5213;53.548;9.930;2023-05-20T05:23:24;2.55;;;1.58;;
10335;SDS011;5213;53.548;9.930;2023-05-20T05:25:50;2.75;;;1.75;;
10335;SDS011;5213;53.548;9.930;2023-05-20T05:28:17;2.03;;;1.65;;
10335;SDS011;5213;53.548;9.930;2023-05-20T05:30:43;1.90;;;1.70;;
10335;SDS011;5213;53.548;9.930;2023-05-20T05:33:09;3.63;;;1.80;;
10335;SDS011;5213;53.548;9.930;2023-05-20T05:35:35;2.17;;;1.80;;
10335;SDS011;5213;53.548;9.930;2023-05-20T05:38:01;2.47;;;1.67;;
10335;SDS011;5213;53.548;9.930;2023-05-20T05:40:27;1.65;;;1.50;;
10335;SDS011;5213;53.548;9.930;2023-05-20T05:42:53;2.72;;;1.80;;
10335;SDS011;5213;53.548;9.930;2023-05-20T05:45:19;3.10;;;1.75;;
10335;SDS011;5213;53.548;9.930;2023-05-20T05:47:45;2.42;;;1.77;;
10335;SDS011;5213;53.548;9.930;2023-05-20T05:50:11;5.03;;;1.80;;
10335;SDS011;5213;53.548;9.930;2023-05-20T05:52:37;3.03;;;1.90;;
10335;SDS011;5213;53.548;9.930;2023-05-20T05:55:03;2.38;;;1.60;;
10335;SDS011;5213;53.548;9.930;2023-05-20T05:57:30;2.92;;;1.60;;
10335;SDS011;5213;53.548;9.930;2023-05-20T05:59:56;4.35;;;1.70;;
10335;SDS011;5213;53.548;9.930;2023-05-20T06:02:22;2.40;;;1.60;;
10335;SDS011;5213;53.548;9.930;2023-05-20T06:04:48;2.05;;;1.80;;
10335;SDS011;5213;53.548;9.930;2023-05-20T06:07:14;4.20;;;1.55;;
10335;SDS011;5213;53.548;9.930;2023-05-20T06:09:40;3.30;;;1.83;;
10335;SDS011;5213;53.548;9.930;2023-05-20T06:12:06;1.60;;;1.50;;
10335;SDS011;5213;53.548;9.930;2023-05-20T06:14:32;2.08;;;1.60;;
10335;SDS011;5213;53.548;9.930;2023-05-20T06:16:59;7.10;;;2.03;;
10335;SDS011;5213;53.548;9.930;2023-05-20T06:19:25;3.60;;;1.77;;
10335;SDS011;5213;53.548;9.930;2023-05-20T06:21:51;2.72;;;1.58;;
10335;SDS011;5213;53.548;9.930;2023-05-20T06:24:17;1.95;;;1.65;;
10335;SDS011;5213;53.548;9.930;2023-05-20T06:26:43;2.55;;;1.77;;
10335;SDS011;5213;53.548;9.930;2023-05-20T06:29:10;2.72;;;2.00;;
10335;SDS011;5213;53.548;9.930;2023-05-20T06:31:36;4.00;;;2.00;;
10335;SDS011;5213;53.548;9.930;2023-05-20T06:34:02;2.75;;;1.98;;
10335;SDS011;5213;53.548;9.930;2023-05-20T06:36:28;1.77;;;1.67;;
10335;SDS011;5213;53.548;9.930;2023-05-20T06:38:54;2.90;;;1.88;;
10335;SDS011;5213;53.548;9.930;2023-05-20T06:41:20;1.70;;;1.60;;
10335;SDS011;5213;53.548;9.930;2023-05-20T06:43:47;4.90;;;2.10;;
10335;SDS011;5213;53.548;9.930;2023-05-20T06:46:13;3.28;;;1.83;;
10335;SDS011;5213;53.548;9.930;2023-05-20T06:48:39;3.13;;;1.75;;
10335;SDS011;5213;53.548;9.930;2023-05-20T06:51:08;5.25;;;2.03;;
10335;SDS011;5213;53.548;9.930;2023-05-20T06:53:34;3.47;;;1.90;;
10335;SDS011;5213;53.548;9.930;2023-05-20T06:56:00;3.63;;;2.00;;
10335;SDS011;5213;53.548;9.930;2023-05-20T06:58:27;3.92;;;2.03;;
10335;SDS011;5213;53.548;9.930;2023-05-20T07:00:53;2.42;;;1.80;;
10335;SDS011;5213;53.548;9.930;2023-05-20T07:03:19;4.85;;;1.80;;
10335;SDS011;5213;53.548;9.930;2023-05-20T07:05:45;4.03;;;2.15;;
10335;SDS011;5213;53.548;9.930;2023-05-20T07:08:11;4.07;;;2.20;;
10335;SDS011;5213;53.548;9.930;2023-05-20T07:10:37;2.95;;;1.92;;
10335;SDS011;5213;53.548;9.930;2023-05-20T07:13:03;4.97;;;1.90;;
10335;SDS011;5213;53.548;9.930;2023-05-20T07:15:29;5.13;;;1.92;;
10335;SDS011;5213;53.548;9.930;2023-05-20T07:17:55;2.90;;;1.85;;
10335;SDS011;5213;53.548;9.930;2023-05-20T07:20:22;2.55;;;2.05;;
10335;SDS011;5213;53.548;9.930;2023-05-20T07:22:48;3.90;;;2.08;;
10335;SDS011;5213;53.548;9.930;2023-05-20T07:25:15;3.30;;;1.67;;
10335;SDS011;5213;53.548;9.930;2023-05-20T07:27:41;3.03;;;2.08;;
10335;SDS011;5213;53.548;9.930;2023-05-20T07:30:08;4.35;;;2.20;;
10335;SDS011;5213;53.548;9.930;2023-05-20T07:32:34;2.13;;;1.95;;
10335;SDS011;5213;53.548;9.930;2023-05-20T07:35:00;2.00;;;1.90;;
10335;SDS011;5213;53.548;9.930;2023-05-20T07:37:26;1.85;;;1.70;;
10335;SDS011;5213;53.548;9.930;2023-05-20T07:39:52;4.25;;;1.92;;
10335;SDS011;5213;53.548;9.930;2023-05-20T07:42:18;2.05;;;1.95;;
10335;SDS011;5213;53.548;9.930;2023-05-20T07:44:44;3.17;;;2.00;;
10335;SDS011;5213;53.548;9.930;2023-05-20T07:47:11;4.88;;;2.13;;
10335;SDS011;5213;53.548;9.930;2023-05-20T07:49:37;2.78;;;1.85;;
10335;SDS011;5213;53.548;9.930;2023-05-20T07:52:03;3.45;;;1.75;;
10335;SDS011;5213;53.548;9.930;2023-05-20T07:54:30;5.15;;;2.33;;
10335;SDS011;5213;53.548;9.930;2023-05-20T07:56:56;2.97;;;2.15;;
10335;SDS011;5213;53.548;9.930;2023-05-20T07:59:22;3.53;;;2.20;;
10335;SDS011;5213;53.548;9.930;2023-05-20T08:01:49;3.08;;;2.30;;
10335;SDS011;5213;53.548;9.930;2023-05-20T08:04:15;4.95;;;2.10;;
10335;SDS011;5213;53.548;9.930;2023-05-20T08:06:41;3.80;;;2.17;;
10335;SDS011;5213;53.548;9.930;2023-05-20T08:09:08;3.50;;;1.90;;
10335;SDS011;5213;53.548;9.930;2023-05-20T08:11:34;6.50;;;2.38;;
10335;SDS011;5213;53.548;9.930;2023-05-20T08:14:00;2.42;;;2.22;;
10335;SDS011;5213;53.548;9.930;2023-05-20T08:16:26;3.35;;;2.30;;
10335;SDS011;5213;53.548;9.930;2023-05-20T08:18:53;2.88;;;2.20;;
10335;SDS011;5213;53.548;9.930;2023-05-20T08:21:19;4.03;;;2.20;;
10335;SDS011;5213;53.548;9.930;2023-05-20T08:23:45;3.35;;;2.50;;
10335;SDS011;5213;53.548;9.930;2023-05-20T08:26:11;2.58;;;2.15;;
10335;SDS011;5213;53.548;9.930;2023-05-20T08:28:38;3.05;;;2.10;;
10335;SDS011;5213;53.548;9.930;2023-05-20T08:31:04;4.15;;;2.22;;
10335;SDS011;5213;53.548;9.930;2023-05-20T08:33:30;2.97;;;2.10;;
10335;SDS011;5213;53.548;9.930;2023-05-20T08:35:56;3.10;;;2.47;;
10335;SDS011;5213;53.548;9.930;2023-05-20T08:38:22;4.80;;;2.30;;
10335;SDS011;5213;53.548;9.930;2023-05-20T08:40:55;4.90;;;2.20;;
10335;SDS011;5213;53.548;9.930;2023-05-20T08:43:21;2.70;;;2.00;;
10335;SDS011;5213;53.548;9.930;2023-05-20T08:45:47;2.10;;;1.92;;
10335;SDS011;5213;53.548;9.930;2023-05-20T08:48:16;4.25;;;2.03;;
10335;SDS011;5213;53.548;9.930;2023-05-20T08:50:44;3.33;;;2.15;;
10335;SDS011;5213;53.548;9.930;2023-05-20T08:53:11;3.50;;;1.90;;
10335;SDS011;5213;53.548;9.930;2023-05-20T08:55:53;2.17;;;2.08;;
10335;SDS011;5213;53.548;9.930;2023-05-20T08:58:21;1.85;;;1.75;;
10335;SDS011;5213;53.548;9.930;2023-05-20T09:00:47;5.57;;;2.00;;
10335;SDS011;5213;53.548;9.930;2023-05-20T09:03:14;2.25;;;1.60;;
10335;SDS011;5213;53.548;9.930;2023-05-20T09:05:40;3.33;;;1.60;;
10335;SDS011;5213;53.548;9.930;2023-05-20T09:08:06;1.63;;;1.52;;
10335;SDS011;5213;53.548;9.930;2023-05-20T09:10:33;1.77;;;1.67;;
10335;SDS011;5213;53.548;9.930;2023-05-20T09:13:00;3.17;;;1.90;;
10335;SDS011;5213;53.548;9.930;2023-05-20T09:15:28;3.15;;;1.75;;
10335;SDS011;5213;53.548;9.930;2023-05-20T09:17:54;2.25;;;1.90;;
10335;SDS011;5213;53.548;9.930;2023-05-20T09:20:20;1.52;;;1.48;;
10335;SDS011;5213;53.548;9.930;2023-05-20T09:22:49;2.38;;;1.80;;
10335;SDS011;5213;53.548;9.930;2023-05-20T09:25:20;2.00;;;1.83;;
10335;SDS011;5213;53.548;9.930;2023-05-20T09:27:50;2.08;;;1.90;;
10335;SDS011;5213;53.548;9.930;2023-05-20T09:30:19;1.67;;;1.58;;
10335;SDS011;5213;53.548;9.930;2023-05-20T09:32:55;2.70;;;1.80;;
10335;SDS011;5213;53.548;9.930;2023-05-20T09:35:21;1.83;;;1.70;;
10335;SDS011;5213;53.548;9.930;2023-05-20T09:37:50;2.00;;;1.73;;
10335;SDS011;5213;53.548;9.930;2023-05-20T09:40:17;2.10;;;1.90;;
10335;SDS011;5213;53.548;9.930;2023-05-20T09:45:18;1.95;;;1.77;;
10335;SDS011;5213;53.548;9.930;2023-05-20T09:47:46;2.47;;;1.80;;
10335;SDS011;5213;53.548;9.930;2023-05-20T09:50:12;2.03;;;1.60;;
10335;SDS011;5213;53.548;9.930;2023-05-20T09:52:39;3.38;;;1.63;;
10335;SDS011;5213;53.548;9.930;2023-05-20T09:55:05;1.80;;;1.70;;
10335;SDS011;5213;53.548;9.930;2023-05-20T09:57:35;2.08;;;1.70;;
10335;SDS011;5213;53.548;9.930;2023-05-20T10:00:02;2.17;;;1.45;;
10335;SDS011;5213;53.548;9.930;2023-05-20T10:02:29;1.88;;;1.77;;
10335;SDS011;5213;53.548;9.930;2023-05-20T10:04:56;3.17;;;1.88;;
10335;SDS011;5213;53.548;9.930;2023-05-20T10:15:30;2.58;;;1.67;;
10335;SDS011;5213;53.548;9.930;2023-05-20T10:20:47;1.98;;;1.73;;
10335;SDS011;5213;53.548;9.930;2023-05-20T10:23:23;3.20;;;1.52;;
10335;SDS011;5213;53.548;9.930;2023-05-20T10:25:52;1.80;;;1.70;;
10335;SDS011;5213;53.548;9.930;2023-05-20T10:28:32;1.60;;;1.50;;
10335;SDS011;5213;53.548;9.930;2023-05-20T10:31:00;1.73;;;1.60;;
10335;SDS011;5213;53.548;9.930;2023-05-20T10:33:26;2.03;;;1.85;;
10335;SDS011;5213;53.548;9.930;2023-05-20T10:35:52;3.20;;;1.83;;
10335;SDS011;5213;53.548;9.930;2023-05-20T10:38:19;2.85;;;1.90;;
10335;SDS011;5213;53.548;9.930;2023-05-20T10:40:46;2.08;;;1.80;;
10335;SDS011;5213;53.548;9.930;2023-05-20T10:43:13;1.88;;;1.70;;
10335;SDS011;5213;53.548;9.930;2023-05-20T10:45:49;2.80;;;1.80;;
10335;SDS011;5213;53.548;9.930;2023-05-20T10:48:19;2.00;;;1.80;;
10335;SDS011;5213;53.548;9.930;2023-05-20T10:50:45;1.80;;;1.65;;
10335;SDS011;5213;53.548;9.930;2023-05-20T10:53:12;2.05;;;1.88;;
10335;SDS011;5213;53.548;9.930;2023-05-20T10:55:39;2.08;;;1.70;;
10335;SDS011;5213;53.548;9.930;2023-05-20T10:58:06;3.67;;;1.80;;
10335;SDS011;5213;53.548;9.930;2023-05-20T11:00:33;1.77;;;1.67;;
10335;SDS011;5213;53.548;9.930;2023-05-20T11:03:00;1.95;;;1.75;;
10335;SDS011;5213;53.548;9.930;2023-05-20T11:05:27;2.15;;;1.92;;
10335;SDS011;5213;53.548;9.930;2023-05-20T11:08:05;2.75;;;1.90;;
10335;SDS011;5213;53.548;9.930;2023-05-20T11:10:32;2.08;;;1.80;;
10335;SDS011;5213;53.548;9.930;2023-05-20T11:12:59;2.50;;;1.90;;
10335;SDS011;5213;53.548;9.930;2023-05-20T11:15:25;2.33;;;1.67;;
10335;SDS011;5213;53.548;9.930;2023-05-20T11:17:55;5.25;;;2.00;;
10335;SDS011;5213;53.548;9.930;2023-05-20T11:20:22;1.75;;;1.63;;
10335;SDS011;5213;53.548;9.930;2023-05-20T11:22:57;2.67;;;1.83;;
10335;SDS011;5213;53.548;9.930;2023-05-20T11:25:23;2.78;;;1.92;;
10335;SDS011;5213;53.548;9.930;2023-05-20T11:27:50;2.25;;;1.80;;
10335;SDS011;5213;53.548;9.930;2023-05-20T11:30:16;1.88;;;1.77;;
10335;SDS011;5213;53.548;9.930;2023-05-20T11:32:43;2.50;;;1.60;;
10335;SDS011;5213;53.548;9.930;2023-05-20T11:35:26;3.17;;;2.15;;
10335;SDS011;5213;53.548;9.930;2023-05-20T11:38:02;3.05;;;2.17;;
10335;SDS011;5213;53.548;9.930;2023-05-20T11:40:30;2.83;;;2.05;;
10335;SDS011;5213;53.548;9.930;2023-05-20T11:42:57;2.70;;;1.90;;
10335;SDS011;5213;53.548;9.930;2023-05-20T11:45:23;1.95;;;1.85;;
10335;SDS011;5213;53.548;9.930;2023-05-20T11:48:01;2.35;;;2.08;;
10335;SDS011;5213;53.548;9.930;2023-05-20T11:50:27;2.20;;;2.10;;
10335;SDS011;5213;53.548;9.930;2023-05-20T11:52:57;5.03;;;2.10;;
10335;SDS011;5213;53.548;9.930;2023-05-20T11:55:24;2.63;;;2.35;;
10335;SDS011;5213;53.548;9.930;2023-05-20T11:57:50;4.13;;;2.05;;
10335;SDS011;5213;53.548;9.930;2023-05-20T12:00:17;2.30;;;2.10;;
10335;SDS011;5213;53.548;9.930;2023-05-20T12:02:43;2.30;;;2.10;;
10335;SDS011;5213;53.548;9.930;2023-05-20T12:05:09;3.20;;;2.28;;
10335;SDS011;5213;53.548;9.930;2023-05-20T12:07:36;2.30;;;2.03;;
10335;SDS011;5213;53.548;9.930;2023-05-20T12:10:02;3.75;;;2.10;;
10335;SDS011;5213;53.548;9.930;2023-05-20T12:12:28;3.80;;;2.20;;
10335;SDS011;5213;53.548;9.930;2023-05-20T12:14:55;3.85;;;2.00;;
10335;SDS011;5213;53.548;9.930;2023-05-20T12:17:21;2.03;;;1.83;;
10335;SDS011;5213;53.548;9.930;2023-05-20T12:19:47;3.30;;;2.30;;
10335;SDS011;5213;53.548;9.930;2023-05-20T12:22:13;3.33;;;2.22;;
10335;SDS011;5213;53.548;9.930;2023-05-20T12:24:39;3.28;;;2.35;;
10335;SDS011;5213;53.548;9.930;2023-05-20T12:27:05;1.83;;;1.73;;
10335;SDS011;5213;53.548;9.930;2023-05-20T12:29:32;2.30;;;2.10;;
10335;SDS011;5213;53.548;9.930;2023-05-20T12:31:58;2.88;;;2.10;;
10335;SDS011;5213;53.548;9.930;2023-05-20T12:34:25;2.67;;;2.05;;
10335;SDS011;5213;53.548;9.930;2023-05-20T12:36:51;2.70;;;2.25;;
10335;SDS011;5213;53.548;9.930;2023-05-20T12:39:17;2.60;;;2.00;;
10335;SDS011;5213;53.548;9.930;2023-05-20T12:41:43;3.83;;;2.28;;
10335;SDS011;5213;53.548;9.930;2023-05-20T12:44:09;4.55;;;2.20;;
10335;SDS011;5213;53.548;9.930;2023-05-20T12:46:36;4.03;;;2.20;;
10335;SDS011;5213;53.548;9.930;2023-05-20T12:49:02;3.92;;;2.00;;
10335;SDS011;5213;53.548;9.930;2023-05-20T12:51:28;3.58;;;2.50;;
10335;SDS011;5213;53.548;9.930;2023-05-20T12:53:54;2.65;;;2.05;;
10335;SDS011;5213;53.548;9.930;2023-05-20T12:56:21;2.70;;;2.00;;
10335;SDS011;5213;53.548;9.930;2023-05-20T12:58:47;2.55;;;1.92;;
10335;SDS011;5213;53.548;9.930;2023-05-20T13:01:13;2.72;;;1.92;;
10335;SDS011;5213;53.548;9.930;2023-05-20T13:03:39;3.55;;;1.90;;
10335;SDS011;5213;53.548;9.930;2023-05-20T13:06:05;3.28;;;2.17;;
10335;SDS011;5213;53.548;9.930;2023-05-20T13:08:31;1.85;;;1.75;;
10335;SDS011;5213;53.548;9.930;2023-05-20T13:10:58;1.98;;;1.88;;
10335;SDS011;5213;53.548;9.930;2023-05-20T13:13:24;3.53;;;2.10;;
10335;SDS011;5213;53.548;9.930;2023-05-20T13:15:50;2.78;;;2.10;;
10335;SDS011;5213;53.548;9.930;2023-05-20T13:18:16;2.25;;;2.05;;
10335;SDS011;5213;53.548;9.930;2023-05-20T13:20:43;2.42;;;1.88;;
10335;SDS011;5213;53.548;9.930;2023-05-20T13:23:09;1.92;;;1.83;;
10335;SDS011;5213;53.548;9.930;2023-05-20T13:25:35;2.85;;;1.80;;
10335;SDS011;5213;53.548;9.930;2023-05-20T13:28:01;3.60;;;2.20;;
10335;SDS011;5213;53.548;9.930;2023-05-20T13:30:28;3.05;;;2.00;;
10335;SDS011;5213;53.548;9.930;2023-05-20T13:32:54;2.53;;;2.17;;
10335;SDS011;5213;53.548;9.930;2023-05-20T13:35:20;2.10;;;2.00;;
10335;SDS011;5213;53.548;9.930;2023-05-20T13:37:46;2.72;;;2.10;;
10335;SDS011;5213;53.548;9.930;2023-05-20T13:40:12;2.17;;;1.95;;
10335;SDS011;5213;53.548;9.930;2023-05-20T13:42:38;2.55;;;2.35;;
10335;SDS011;5213;53.548;9.930;2023-05-20T13:45:04;2.13;;;1.90;;
10335;SDS011;5213;53.548;9.930;2023-05-20T13:47:31;2.40;;;2.20;;
10335;SDS011;5213;53.548;9.930;2023-05-20T13:49:57;3.63;;;2.15;;
10335;SDS011;5213;53.548;9.930;2023-05-20T13:52:23;2.25;;;2.03;;
10335;SDS011;5213;53.548;9.930;2023-05-20T13:54:49;2.90;;;1.92;;
10335;SDS011;5213;53.548;9.930;2023-05-20T13:57:15;1.98;;;1.88;;
10335;SDS011;5213;53.548;9.930;2023-05-20T13:59:41;2.40;;;2.00;;
10335;SDS011;5213;53.548;9.930;2023-05-20T14:02:07;2.53;;;1.95;;
10335;SDS011;5213;53.548;9.930;2023-05-20T14:04:33;1.90;;;1.80;;
10335;SDS011;5213;53.548;9.930;2023-05-20T14:07:02;4.57;;;2.20;;
10335;SDS011;5213;53.548;9.930;2023-05-20T14:09:28;2.13;;;2.03;;
10335;SDS011;5213;53.548;9.930;2023-05-20T14:11:54;2.25;;;2.05;;
10335;SDS011;5213;53.548;9.930;2023-05-20T14:14:21;2.83;;;2.20;;
10335;SDS011;5213;53.548;9.930;2023-05-20T14:16:47;2.20;;;2.10;;
10335;SDS011;5213;53.548;9.930;2023-05-20T14:19:13;2.40;;;2.17;;
10335;SDS011;5213;53.548;9.930;2023-05-20T14:21:39;2.30;;;2.10;;
10335;SDS011;5213;53.548;9.930;2023-05-20T14:24:05;3.70;;;2.38;;
10335;SDS011;5213;53.548;9.930;2023-05-20T14:26:34;2.10;;;2.00;;
10335;SDS011;5213;53.548;9.930;2023-05-20T14:29:00;2.10;;;2.00;;
10335;SDS011;5213;53.548;9.930;2023-05-20T14:31:36;2.10;;;2.00;;
10335;SDS011;5213;53.548;9.930;2023-05-20T14:34:03;2.03;;;1.88;;
10335;SDS011;5213;53.548;9.930;2023-05-20T14:36:29;2.08;;;1.88;;
10335;SDS011;5213;53.548;9.930;2023-05-20T14:38:56;2.20;;;2.00;;
10335;SDS011;5213;53.548;9.930;2023-05-20T14:41:22;2.13;;;1.90;;
10335;SDS011;5213;53.548;9.930;2023-05-20T14:43:48;2.10;;;2.00;;
10335;SDS011;5213;53.548;9.930;2023-05-20T14:46:14;2.20;;;2.00;;
10335;SDS011;5213;53.548;9.930;2023-05-20T14:48:40;2.13;;;2.03;;
10335;SDS011;5213;53.548;9.930;2023-05-20T14:51:06;3.65;;;2.10;;
10335;SDS011;5213;53.548;9.930;2023-05-20T14:53:32;2.10;;;2.00;;
10335;SDS011;5213;53.548;9.930;2023-05-20T14:55:58;2.25;;;1.73;;
10335;SDS011;5213;53.548;9.930;2023-05-20T14:58:24;2.08;;;1.98;;
10335;SDS011;5213;53.548;9.930;2023-05-20T15:00:53;2.17;;;2.00;;
10335;SDS011;5213;53.548;9.930;2023-05-20T15:03:19;2.08;;;1.98;;
10335;SDS011;5213;53.548;9.930;2023-05-20T15:05:47;2.42;;;2.22;;
10335;SDS011;5213;53.548;9.930;2023-05-20T15:08:13;2.38;;;2.10;;
10335;SDS011;5213;53.548;9.930;2023-05-20T15:10:40;3.08;;;2.13;;